Slocomb, Alabama
Current Conditions -  °F | °C
As of 1:58 AM on Wednesday 22 Oct 2014 (Local Time) from KOZR Reporting Station
Clear Clear  
Wind Chill: 60°   Ceiling: Unl
Heat Index: 60°   Visibility: 10mi
Dew Point: 53°   Wind: 5mph
Humidity: 78%   Direction: 350°N
Pressure: 30"   Gusts: NA
Location:  31.11°N, 85.59°W
Report Text: KOZR 220658Z AUTO 35004KT 10SM CLR 16/12 A3000 RMK AO2 SLP159 T01560117
Loading
Personal Weather Stations






























Interactive Weather Map
Tropical Storm Tracking
New forecast layout! Learn more

10-Day Weather Forecast

Advertisements
Track Severe Weather on mobile